sensor_id;sensor_type;location;lat;lon;timestamp;P1;durP1;ratioP1;P2;durP2;ratioP2
9559;SDS011;4818;50.860;4.648;2023-02-15T00:01:50;44.10;;;22.38;;
9559;SDS011;4818;50.860;4.648;2023-02-15T00:04:18;46.47;;;21.98;;
9559;SDS011;4818;50.860;4.648;2023-02-15T00:06:44;51.97;;;25.05;;
9559;SDS011;4818;50.860;4.648;2023-02-15T00:09:11;53.20;;;24.27;;
9559;SDS011;4818;50.860;4.648;2023-02-15T00:11:37;47.38;;;23.15;;
9559;SDS011;4818;50.860;4.648;2023-02-15T00:14:10;47.28;;;22.00;;
9559;SDS011;4818;50.860;4.648;2023-02-15T00:16:37;50.10;;;24.13;;
9559;SDS011;4818;50.860;4.648;2023-02-15T00:19:03;42.00;;;20.67;;
9559;SDS011;4818;50.860;4.648;2023-02-15T00:21:30;51.55;;;24.35;;
9559;SDS011;4818;50.860;4.648;2023-02-15T00:23:57;51.70;;;24.58;;
9559;SDS011;4818;50.860;4.648;2023-02-15T00:26:24;48.80;;;22.10;;
9559;SDS011;4818;50.860;4.648;2023-02-15T00:28:50;47.90;;;23.05;;
9559;SDS011;4818;50.860;4.648;2023-02-15T00:31:17;50.72;;;24.17;;
9559;SDS011;4818;50.860;4.648;2023-02-15T00:33:43;42.38;;;21.45;;
9559;SDS011;4818;50.860;4.648;2023-02-15T00:36:10;46.83;;;22.60;;
9559;SDS011;4818;50.860;4.648;2023-02-15T00:38:36;52.40;;;24.73;;
9559;SDS011;4818;50.860;4.648;2023-02-15T00:41:03;48.10;;;23.83;;
9559;SDS011;4818;50.860;4.648;2023-02-15T00:43:30;49.08;;;24.05;;
9559;SDS011;4818;50.860;4.648;2023-02-15T00:45:57;50.08;;;23.40;;
9559;SDS011;4818;50.860;4.648;2023-02-15T00:48:23;45.83;;;22.63;;
9559;SDS011;4818;50.860;4.648;2023-02-15T00:50:56;50.85;;;25.27;;
9559;SDS011;4818;50.860;4.648;2023-02-15T00:53:22;48.25;;;23.05;;
9559;SDS011;4818;50.860;4.648;2023-02-15T00:55:49;45.67;;;23.50;;
9559;SDS011;4818;50.860;4.648;2023-02-15T00:58:15;44.65;;;23.98;;
9559;SDS011;4818;50.860;4.648;2023-02-15T01:00:43;58.42;;;25.02;;
9559;SDS011;4818;50.860;4.648;2023-02-15T01:03:09;42.10;;;22.77;;
9559;SDS011;4818;50.860;4.648;2023-02-15T01:05:36;51.35;;;22.55;;
9559;SDS011;4818;50.860;4.648;2023-02-15T01:08:02;43.10;;;21.05;;
9559;SDS011;4818;50.860;4.648;2023-02-15T01:10:28;54.22;;;23.13;;
9559;SDS011;4818;50.860;4.648;2023-02-15T01:12:56;50.53;;;23.65;;
9559;SDS011;4818;50.860;4.648;2023-02-15T01:15:22;39.72;;;21.20;;
9559;SDS011;4818;50.860;4.648;2023-02-15T01:17:48;45.45;;;22.17;;
9559;SDS011;4818;50.860;4.648;2023-02-15T01:20:21;49.92;;;22.98;;
9559;SDS011;4818;50.860;4.648;2023-02-15T01:22:48;45.40;;;21.48;;
9559;SDS011;4818;50.860;4.648;2023-02-15T01:25:18;41.75;;;21.52;;
9559;SDS011;4818;50.860;4.648;2023-02-15T01:27:45;51.67;;;23.92;;
9559;SDS011;4818;50.860;4.648;2023-02-15T01:30:12;47.45;;;22.67;;
9559;SDS011;4818;50.860;4.648;2023-02-15T01:32:38;42.75;;;21.90;;
9559;SDS011;4818;50.860;4.648;2023-02-15T01:35:04;47.03;;;20.75;;
9559;SDS011;4818;50.860;4.648;2023-02-15T01:37:31;50.08;;;22.85;;
9559;SDS011;4818;50.860;4.648;2023-02-15T01:39:58;53.60;;;23.50;;
9559;SDS011;4818;50.860;4.648;2023-02-15T01:42:28;52.03;;;23.52;;
9559;SDS011;4818;50.860;4.648;2023-02-15T01:47:29;53.60;;;24.48;;
9559;SDS011;4818;50.860;4.648;2023-02-15T01:50:17;54.92;;;24.08;;
9559;SDS011;4818;50.860;4.648;2023-02-15T01:52:46;46.25;;;23.85;;
9559;SDS011;4818;50.860;4.648;2023-02-15T01:55:15;47.55;;;23.02;;
9559;SDS011;4818;50.860;4.648;2023-02-15T01:57:41;51.65;;;23.70;;
9559;SDS011;4818;50.860;4.648;2023-02-15T02:00:08;51.10;;;24.17;;
9559;SDS011;4818;50.860;4.648;2023-02-15T02:02:34;52.95;;;25.92;;
9559;SDS011;4818;50.860;4.648;2023-02-15T02:05:01;56.22;;;26.33;;
9559;SDS011;4818;50.860;4.648;2023-02-15T02:07:32;51.15;;;24.50;;
9559;SDS011;4818;50.860;4.648;2023-02-15T02:09:59;58.95;;;26.90;;
9559;SDS011;4818;50.860;4.648;2023-02-15T02:12:25;48.47;;;24.70;;
9559;SDS011;4818;50.860;4.648;2023-02-15T02:14:52;56.67;;;25.77;;
9559;SDS011;4818;50.860;4.648;2023-02-15T02:17:24;50.53;;;23.95;;
9559;SDS011;4818;50.860;4.648;2023-02-15T02:28:10;56.05;;;26.35;;
9559;SDS011;4818;50.860;4.648;2023-02-15T02:33:17;51.88;;;25.63;;
9559;SDS011;4818;50.860;4.648;2023-02-15T02:35:48;56.13;;;25.02;;
9559;SDS011;4818;50.860;4.648;2023-02-15T02:41:16;56.45;;;24.65;;
9559;SDS011;4818;50.860;4.648;2023-02-15T02:44:04;50.80;;;23.58;;
9559;SDS011;4818;50.860;4.648;2023-02-15T02:46:39;62.17;;;27.10;;
9559;SDS011;4818;50.860;4.648;2023-02-15T02:49:10;59.75;;;25.30;;
9559;SDS011;4818;50.860;4.648;2023-02-15T02:51:37;47.33;;;23.48;;
9559;SDS011;4818;50.860;4.648;2023-02-15T02:54:04;51.17;;;23.92;;
9559;SDS011;4818;50.860;4.648;2023-02-15T02:56:41;50.78;;;24.02;;
9559;SDS011;4818;50.860;4.648;2023-02-15T02:59:13;50.95;;;25.33;;
9559;SDS011;4818;50.860;4.648;2023-02-15T03:01:46;57.35;;;25.30;;
9559;SDS011;4818;50.860;4.648;2023-02-15T03:04:18;50.47;;;24.60;;
9559;SDS011;4818;50.860;4.648;2023-02-15T03:06:54;51.20;;;23.45;;
9559;SDS011;4818;50.860;4.648;2023-02-15T03:09:24;55.65;;;26.23;;
9559;SDS011;4818;50.860;4.648;2023-02-15T03:12:00;47.50;;;21.58;;
9559;SDS011;4818;50.860;4.648;2023-02-15T03:14:27;54.65;;;22.98;;
9559;SDS011;4818;50.860;4.648;2023-02-15T03:16:53;58.08;;;23.90;;
9559;SDS011;4818;50.860;4.648;2023-02-15T03:19:25;50.25;;;24.65;;
9559;SDS011;4818;50.860;4.648;2023-02-15T03:21:57;51.20;;;23.02;;
9559;SDS011;4818;50.860;4.648;2023-02-15T03:27:04;50.63;;;23.27;;
9559;SDS011;4818;50.860;4.648;2023-02-15T03:29:33;48.70;;;22.50;;
9559;SDS011;4818;50.860;4.648;2023-02-15T03:32:00;47.95;;;22.52;;
9559;SDS011;4818;50.860;4.648;2023-02-15T03:34:27;48.45;;;24.10;;
9559;SDS011;4818;50.860;4.648;2023-02-15T03:37:05;54.03;;;24.92;;
9559;SDS011;4818;50.860;4.648;2023-02-15T03:42:11;49.17;;;22.85;;
9559;SDS011;4818;50.860;4.648;2023-02-15T03:44:47;48.83;;;21.70;;
9559;SDS011;4818;50.860;4.648;2023-02-15T03:47:17;48.10;;;22.90;;
9559;SDS011;4818;50.860;4.648;2023-02-15T03:49:53;48.20;;;22.27;;
9559;SDS011;4818;50.860;4.648;2023-02-15T03:52:21;43.97;;;22.08;;
9559;SDS011;4818;50.860;4.648;2023-02-15T03:54:47;46.95;;;23.35;;
9559;SDS011;4818;50.860;4.648;2023-02-15T03:57:22;50.95;;;23.50;;
9559;SDS011;4818;50.860;4.648;2023-02-15T04:00:13;44.15;;;20.83;;
9559;SDS011;4818;50.860;4.648;2023-02-15T04:03:03;46.28;;;20.98;;
9559;SDS011;4818;50.860;4.648;2023-02-15T04:05:33;44.05;;;22.08;;
9559;SDS011;4818;50.860;4.648;2023-02-15T04:07:59;48.00;;;22.42;;
9559;SDS011;4818;50.860;4.648;2023-02-15T04:10:25;46.50;;;21.77;;
9559;SDS011;4818;50.860;4.648;2023-02-15T04:13:10;47.20;;;22.80;;
9559;SDS011;4818;50.860;4.648;2023-02-15T04:15:36;45.42;;;21.23;;
9559;SDS011;4818;50.860;4.648;2023-02-15T04:18:21;48.03;;;22.25;;
9559;SDS011;4818;50.860;4.648;2023-02-15T04:21:06;51.20;;;22.88;;
9559;SDS011;4818;50.860;4.648;2023-02-15T04:23:51;52.25;;;21.65;;
9559;SDS011;4818;50.860;4.648;2023-02-15T04:26:35;42.15;;;21.33;;
9559;SDS011;4818;50.860;4.648;2023-02-15T04:29:02;39.95;;;21.40;;
9559;SDS011;4818;50.860;4.648;2023-02-15T04:31:28;47.08;;;21.60;;
9559;SDS011;4818;50.860;4.648;2023-02-15T04:33:54;44.40;;;22.23;;
9559;SDS011;4818;50.860;4.648;2023-02-15T04:36:20;46.45;;;23.30;;
9559;SDS011;4818;50.860;4.648;2023-02-15T04:38:46;47.40;;;22.23;;
9559;SDS011;4818;50.860;4.648;2023-02-15T04:41:13;42.60;;;21.02;;
9559;SDS011;4818;50.860;4.648;2023-02-15T04:43:39;42.38;;;19.92;;
9559;SDS011;4818;50.860;4.648;2023-02-15T04:46:05;46.83;;;22.27;;
9559;SDS011;4818;50.860;4.648;2023-02-15T04:48:32;53.03;;;22.33;;
9559;SDS011;4818;50.860;4.648;2023-02-15T04:50:58;45.25;;;20.95;;
9559;SDS011;4818;50.860;4.648;2023-02-15T04:53:24;46.22;;;22.58;;
9559;SDS011;4818;50.860;4.648;2023-02-15T04:55:51;44.63;;;21.55;;
9559;SDS011;4818;50.860;4.648;2023-02-15T04:58:17;44.42;;;21.55;;
9559;SDS011;4818;50.860;4.648;2023-02-15T05:00:43;47.10;;;22.10;;
9559;SDS011;4818;50.860;4.648;2023-02-15T05:03:09;48.58;;;22.50;;
9559;SDS011;4818;50.860;4.648;2023-02-15T05:05:36;48.00;;;21.30;;
9559;SDS011;4818;50.860;4.648;2023-02-15T05:08:02;51.08;;;21.70;;
9559;SDS011;4818;50.860;4.648;2023-02-15T05:10:28;52.05;;;22.38;;
9559;SDS011;4818;50.860;4.648;2023-02-15T05:12:54;44.67;;;22.25;;
9559;SDS011;4818;50.860;4.648;2023-02-15T05:15:21;44.95;;;21.45;;
9559;SDS011;4818;50.860;4.648;2023-02-15T05:17:47;41.55;;;21.38;;
9559;SDS011;4818;50.860;4.648;2023-02-15T05:20:13;46.00;;;22.60;;
9559;SDS011;4818;50.860;4.648;2023-02-15T05:22:39;44.30;;;21.95;;
9559;SDS011;4818;50.860;4.648;2023-02-15T05:25:06;50.63;;;22.92;;
9559;SDS011;4818;50.860;4.648;2023-02-15T05:27:51;48.25;;;23.13;;
9559;SDS011;4818;50.860;4.648;2023-02-15T05:30:35;46.42;;;23.30;;
9559;SDS011;4818;50.860;4.648;2023-02-15T05:33:02;49.05;;;24.13;;
9559;SDS011;4818;50.860;4.648;2023-02-15T05:35:28;49.92;;;23.75;;
9559;SDS011;4818;50.860;4.648;2023-02-15T05:37:54;46.17;;;21.95;;
9559;SDS011;4818;50.860;4.648;2023-02-15T05:40:20;45.42;;;23.75;;
9559;SDS011;4818;50.860;4.648;2023-02-15T05:42:46;53.83;;;23.55;;
9559;SDS011;4818;50.860;4.648;2023-02-15T05:45:13;47.97;;;23.17;;
9559;SDS011;4818;50.860;4.648;2023-02-15T05:47:40;51.15;;;24.05;;
9559;SDS011;4818;50.860;4.648;2023-02-15T05:50:06;48.97;;;24.00;;
9559;SDS011;4818;50.860;4.648;2023-02-15T05:52:33;51.50;;;23.08;;
9559;SDS011;4818;50.860;4.648;2023-02-15T05:54:59;48.88;;;23.58;;
9559;SDS011;4818;50.860;4.648;2023-02-15T05:57:27;49.38;;;23.42;;
9559;SDS011;4818;50.860;4.648;2023-02-15T05:59:54;46.22;;;21.88;;
9559;SDS011;4818;50.860;4.648;2023-02-15T06:02:20;47.00;;;22.35;;
9559;SDS011;4818;50.860;4.648;2023-02-15T06:04:46;56.30;;;23.33;;
9559;SDS011;4818;50.860;4.648;2023-02-15T06:07:12;49.58;;;23.23;;
9559;SDS011;4818;50.860;4.648;2023-02-15T06:09:39;50.25;;;23.75;;
9559;SDS011;4818;50.860;4.648;2023-02-15T06:12:05;51.38;;;22.67;;
9559;SDS011;4818;50.860;4.648;2023-02-15T06:14:31;48.33;;;24.25;;
9559;SDS011;4818;50.860;4.648;2023-02-15T06:16:57;52.90;;;24.33;;
9559;SDS011;4818;50.860;4.648;2023-02-15T06:19:24;46.45;;;22.73;;
9559;SDS011;4818;50.860;4.648;2023-02-15T06:21:50;51.05;;;23.15;;
9559;SDS011;4818;50.860;4.648;2023-02-15T06:24:16;47.92;;;23.58;;
9559;SDS011;4818;50.860;4.648;2023-02-15T06:26:42;49.97;;;22.98;;
9559;SDS011;4818;50.860;4.648;2023-02-15T06:29:08;45.83;;;23.42;;
9559;SDS011;4818;50.860;4.648;2023-02-15T06:31:35;44.08;;;20.77;;
9559;SDS011;4818;50.860;4.648;2023-02-15T06:34:01;47.58;;;23.60;;
9559;SDS011;4818;50.860;4.648;2023-02-15T06:36:28;49.20;;;23.38;;
9559;SDS011;4818;50.860;4.648;2023-02-15T06:38:54;44.30;;;21.80;;
9559;SDS011;4818;50.860;4.648;2023-02-15T06:41:21;55.55;;;24.00;;
9559;SDS011;4818;50.860;4.648;2023-02-15T06:43:48;48.25;;;21.75;;
9559;SDS011;4818;50.860;4.648;2023-02-15T06:46:14;46.67;;;22.80;;
9559;SDS011;4818;50.860;4.648;2023-02-15T06:48:40;49.72;;;22.88;;
9559;SDS011;4818;50.860;4.648;2023-02-15T06:51:07;53.72;;;23.80;;
9559;SDS011;4818;50.860;4.648;2023-02-15T06:53:33;46.00;;;23.08;;
9559;SDS011;4818;50.860;4.648;2023-02-15T06:56:04;51.55;;;22.63;;
9559;SDS011;4818;50.860;4.648;2023-02-15T06:58:35;49.28;;;22.88;;
9559;SDS011;4818;50.860;4.648;2023-02-15T07:01:01;46.33;;;21.83;;
9559;SDS011;4818;50.860;4.648;2023-02-15T07:03:28;52.33;;;23.02;;
9559;SDS011;4818;50.860;4.648;2023-02-15T07:05:55;51.55;;;22.98;;
9559;SDS011;4818;50.860;4.648;2023-02-15T07:08:21;47.90;;;22.67;;
9559;SDS011;4818;50.860;4.648;2023-02-15T07:10:48;47.78;;;23.15;;
9559;SDS011;4818;50.860;4.648;2023-02-15T07:13:15;51.63;;;22.50;;
9559;SDS011;4818;50.860;4.648;2023-02-15T07:15:41;50.72;;;22.63;;
9559;SDS011;4818;50.860;4.648;2023-02-15T07:18:07;52.00;;;23.50;;
9559;SDS011;4818;50.860;4.648;2023-02-15T07:20:36;47.58;;;23.00;;
9559;SDS011;4818;50.860;4.648;2023-02-15T07:23:02;44.42;;;21.85;;
9559;SDS011;4818;50.860;4.648;2023-02-15T07:25:29;49.42;;;22.15;;
9559;SDS011;4818;50.860;4.648;2023-02-15T07:27:58;41.70;;;21.05;;
9559;SDS011;4818;50.860;4.648;2023-02-15T07:30:25;45.13;;;21.52;;
9559;SDS011;4818;50.860;4.648;2023-02-15T07:32:55;51.03;;;23.60;;
9559;SDS011;4818;50.860;4.648;2023-02-15T07:35:46;48.15;;;22.45;;
9559;SDS011;4818;50.860;4.648;2023-02-15T07:38:12;45.40;;;22.80;;
9559;SDS011;4818;50.860;4.648;2023-02-15T07:40:38;46.20;;;22.67;;
9559;SDS011;4818;50.860;4.648;2023-02-15T07:43:05;45.03;;;21.63;;
9559;SDS011;4818;50.860;4.648;2023-02-15T07:45:31;44.72;;;22.98;;
9559;SDS011;4818;50.860;4.648;2023-02-15T07:47:57;48.40;;;22.33;;
9559;SDS011;4818;50.860;4.648;2023-02-15T07:50:24;53.63;;;24.63;;
9559;SDS011;4818;50.860;4.648;2023-02-15T07:52:50;43.00;;;23.63;;
9559;SDS011;4818;50.860;4.648;2023-02-15T07:55:16;43.53;;;22.38;;
9559;SDS011;4818;50.860;4.648;2023-02-15T07:57:48;43.78;;;23.38;;
9559;SDS011;4818;50.860;4.648;2023-02-15T08:00:15;43.22;;;23.00;;
9559;SDS011;4818;50.860;4.648;2023-02-15T08:02:42;40.47;;;21.73;;
9559;SDS011;4818;50.860;4.648;2023-02-15T08:05:08;47.03;;;22.50;;
9559;SDS011;4818;50.860;4.648;2023-02-15T08:07:34;44.38;;;22.55;;
9559;SDS011;4818;50.860;4.648;2023-02-15T08:10:00;36.55;;;20.58;;
9559;SDS011;4818;50.860;4.648;2023-02-15T08:12:27;41.85;;;20.23;;
9559;SDS011;4818;50.860;4.648;2023-02-15T08:14:53;37.70;;;20.65;;
9559;SDS011;4818;50.860;4.648;2023-02-15T08:17:19;36.53;;;20.77;;
9559;SDS011;4818;50.860;4.648;2023-02-15T08:19:45;39.40;;;19.63;;
9559;SDS011;4818;50.860;4.648;2023-02-15T08:22:12;38.90;;;21.95;;
9559;SDS011;4818;50.860;4.648;2023-02-15T08:24:39;41.03;;;23.08;;
9559;SDS011;4818;50.860;4.648;2023-02-15T08:27:07;33.58;;;21.40;;
9559;SDS011;4818;50.860;4.648;2023-02-15T08:29:33;37.17;;;22.15;;
9559;SDS011;4818;50.860;4.648;2023-02-15T08:32:01;38.22;;;21.73;;
9559;SDS011;4818;50.860;4.648;2023-02-15T08:34:29;43.38;;;21.58;;
9559;SDS011;4818;50.860;4.648;2023-02-15T08:36:55;41.72;;;21.98;;
9559;SDS011;4818;50.860;4.648;2023-02-15T08:39:22;41.92;;;21.40;;
9559;SDS011;4818;50.860;4.648;2023-02-15T08:41:48;37.85;;;22.35;;
9559;SDS011;4818;50.860;4.648;2023-02-15T08:44:15;38.00;;;21.63;;
9559;SDS011;4818;50.860;4.648;2023-02-15T08:46:43;37.42;;;22.48;;
9559;SDS011;4818;50.860;4.648;2023-02-15T08:49:15;34.92;;;22.05;;
9559;SDS011;4818;50.860;4.648;2023-02-15T08:51:41;36.10;;;21.58;;
9559;SDS011;4818;50.860;4.648;2023-02-15T08:54:09;41.00;;;23.33;;
9559;SDS011;4818;50.860;4.648;2023-02-15T08:56:37;40.03;;;21.02;;
9559;SDS011;4818;50.860;4.648;2023-02-15T08:59:04;35.13;;;21.63;;
9559;SDS011;4818;50.860;4.648;2023-02-15T09:01:31;33.33;;;21.33;;
9559;SDS011;4818;50.860;4.648;2023-02-15T09:03:59;35.95;;;21.30;;
9559;SDS011;4818;50.860;4.648;2023-02-15T09:06:26;38.67;;;22.15;;
9559;SDS011;4818;50.860;4.648;2023-02-15T09:08:52;35.28;;;20.98;;
9559;SDS011;4818;50.860;4.648;2023-02-15T09:11:22;31.55;;;20.25;;
9559;SDS011;4818;50.860;4.648;2023-02-15T09:13:52;34.33;;;21.38;;
9559;SDS011;4818;50.860;4.648;2023-02-15T09:16:18;34.85;;;21.10;;
9559;SDS011;4818;50.860;4.648;2023-02-15T09:18:45;34.15;;;20.55;;
9559;SDS011;4818;50.860;4.648;2023-02-15T09:21:12;30.08;;;19.67;;
9559;SDS011;4818;50.860;4.648;2023-02-15T09:23:40;34.15;;;21.15;;
9559;SDS011;4818;50.860;4.648;2023-02-15T09:26:07;29.15;;;20.15;;
9559;SDS011;4818;50.860;4.648;2023-02-15T09:28:33;32.80;;;20.73;;
9559;SDS011;4818;50.860;4.648;2023-02-15T09:31:07;31.40;;;20.30;;
9559;SDS011;4818;50.860;4.648;2023-02-15T09:33:34;35.10;;;20.75;;
9559;SDS011;4818;50.860;4.648;2023-02-15T09:36:00;35.67;;;19.75;;
9559;SDS011;4818;50.860;4.648;2023-02-15T09:38:26;32.95;;;21.60;;
9559;SDS011;4818;50.860;4.648;2023-02-15T09:41:36;39.15;;;21.00;;
9559;SDS011;4818;50.860;4.648;2023-02-15T09:43:51;32.83;;;20.15;;
9559;SDS011;4818;50.860;4.648;2023-02-15T09:46:33;29.80;;;20.23;;
9559;SDS011;4818;50.860;4.648;2023-02-15T09:49:18;35.55;;;21.70;;
9559;SDS011;4818;50.860;4.648;2023-02-15T09:52:00;33.78;;;21.63;;
9559;SDS011;4818;50.860;4.648;2023-02-15T10:12:47;34.90;;;20.17;;
9559;SDS011;4818;50.860;4.648;2023-02-15T10:15:34;32.28;;;20.40;;
9559;SDS011;4818;50.860;4.648;2023-02-15T10:28:30;28.55;;;20.58;;
9559;SDS011;4818;50.860;4.648;2023-02-15T10:31:07;28.50;;;18.92;;
9559;SDS011;4818;50.860;4.648;2023-02-15T10:33:39;28.75;;;19.25;;
9559;SDS011;4818;50.860;4.648;2023-02-15T10:36:30;28.55;;;19.15;;
9559;SDS011;4818;50.860;4.648;2023-02-15T10:39:23;28.73;;;19.95;;
9559;SDS011;4818;50.860;4.648;2023-02-15T10:52:14;27.92;;;17.83;;
9559;SDS011;4818;50.860;4.648;2023-02-15T10:54:49;31.42;;;18.63;;
9559;SDS011;4818;50.860;4.648;2023-02-15T10:57:27;31.65;;;18.90;;
9559;SDS011;4818;50.860;4.648;2023-02-15T11:05:34;30.73;;;18.48;;
9559;SDS011;4818;50.860;4.648;2023-02-15T11:08:03;27.83;;;17.67;;
9559;SDS011;4818;50.860;4.648;2023-02-15T11:10:34;30.10;;;17.05;;
9559;SDS011;4818;50.860;4.648;2023-02-15T11:13:07;37.97;;;18.33;;
9559;SDS011;4818;50.860;4.648;2023-02-15T11:15:36;34.35;;;17.60;;
9559;SDS011;4818;50.860;4.648;2023-02-15T11:20:45;30.13;;;16.88;;
9559;SDS011;4818;50.860;4.648;2023-02-15T11:23:15;32.78;;;17.23;;
9559;SDS011;4818;50.860;4.648;2023-02-15T11:26:26;35.58;;;17.73;;
9559;SDS011;4818;50.860;4.648;2023-02-15T11:28:33;38.00;;;18.75;;
9559;SDS011;4818;50.860;4.648;2023-02-15T11:33:29;38.20;;;17.65;;
9559;SDS011;4818;50.860;4.648;2023-02-15T11:35:59;35.88;;;18.90;;
9559;SDS011;4818;50.860;4.648;2023-02-15T11:38:31;34.37;;;18.20;;
9559;SDS011;4818;50.860;4.648;2023-02-15T11:43:38;31.85;;;17.20;;
9559;SDS011;4818;50.860;4.648;2023-02-15T11:46:06;31.27;;;17.08;;
9559;SDS011;4818;50.860;4.648;2023-02-15T11:48:33;34.05;;;16.95;;
9559;SDS011;4818;50.860;4.648;2023-02-15T11:51:00;36.20;;;19.63;;
9559;SDS011;4818;50.860;4.648;2023-02-15T11:53:28;35.50;;;17.95;;
9559;SDS011;4818;50.860;4.648;2023-02-15T11:55:56;41.05;;;19.40;;
9559;SDS011;4818;50.860;4.648;2023-02-15T12:01:18;36.78;;;19.42;;
9559;SDS011;4818;50.860;4.648;2023-02-15T12:03:54;36.05;;;18.42;;
9559;SDS011;4818;50.860;4.648;2023-02-15T12:06:27;32.88;;;18.83;;
9559;SDS011;4818;50.860;4.648;2023-02-15T12:11:40;35.05;;;18.38;;
9559;SDS011;4818;50.860;4.648;2023-02-15T12:14:07;36.30;;;19.02;;
9559;SDS011;4818;50.860;4.648;2023-02-15T12:19:11;36.75;;;18.77;;
9559;SDS011;4818;50.860;4.648;2023-02-15T12:21:39;32.78;;;18.58;;
9559;SDS011;4818;50.860;4.648;2023-02-15T12:24:17;33.80;;;17.35;;
9559;SDS011;4818;50.860;4.648;2023-02-15T12:26:44;34.00;;;19.17;;
9559;SDS011;4818;50.860;4.648;2023-02-15T12:29:21;32.58;;;18.30;;
9559;SDS011;4818;50.860;4.648;2023-02-15T12:31:50;38.75;;;19.10;;
9559;SDS011;4818;50.860;4.648;2023-02-15T12:36:47;30.55;;;17.65;;
9559;SDS011;4818;50.860;4.648;2023-02-15T12:39:21;30.55;;;17.77;;
9559;SDS011;4818;50.860;4.648;2023-02-15T12:44:21;32.20;;;17.85;;
9559;SDS011;4818;50.860;4.648;2023-02-15T12:49:21;31.40;;;16.45;;
9559;SDS011;4818;50.860;4.648;2023-02-15T12:51:57;33.60;;;18.42;;
9559;SDS011;4818;50.860;4.648;2023-02-15T12:56:50;36.65;;;18.00;;
9559;SDS011;4818;50.860;4.648;2023-02-15T12:59:17;33.20;;;18.83;;
9559;SDS011;4818;50.860;4.648;2023-02-15T13:01:47;34.88;;;18.70;;
9559;SDS011;4818;50.860;4.648;2023-02-15T13:04:26;34.03;;;18.42;;
9559;SDS011;4818;50.860;4.648;2023-02-15T13:06:53;34.40;;;18.35;;
9559;SDS011;4818;50.860;4.648;2023-02-15T13:09:25;38.85;;;18.60;;
9559;SDS011;4818;50.860;4.648;2023-02-15T13:11:55;35.05;;;19.10;;
9559;SDS011;4818;50.860;4.648;2023-02-15T13:14:25;34.95;;;19.13;;
9559;SDS011;4818;50.860;4.648;2023-02-15T13:16:56;31.38;;;18.02;;
9559;SDS011;4818;50.860;4.648;2023-02-15T13:19:37;41.65;;;20.73;;
9559;SDS011;4818;50.860;4.648;2023-02-15T13:22:06;34.33;;;17.80;;
9559;SDS011;4818;50.860;4.648;2023-02-15T13:24:36;37.45;;;20.45;;
9559;SDS011;4818;50.860;4.648;2023-02-15T13:27:03;33.78;;;19.42;;
9559;SDS011;4818;50.860;4.648;2023-02-15T13:29:34;30.70;;;16.48;;
9559;SDS011;4818;50.860;4.648;2023-02-15T13:32:10;34.75;;;18.33;;
9559;SDS011;4818;50.860;4.648;2023-02-15T13:34:38;33.35;;;18.38;;
9559;SDS011;4818;50.860;4.648;2023-02-15T13:37:06;39.25;;;18.92;;
9559;SDS011;4818;50.860;4.648;2023-02-15T13:50:10;35.90;;;19.90;;
9559;SDS011;4818;50.860;4.648;2023-02-15T13:52:51;34.42;;;19.20;;
9559;SDS011;4818;50.860;4.648;2023-02-15T14:16:17;38.15;;;19.35;;
9559;SDS011;4818;50.860;4.648;2023-02-15T14:28:45;37.78;;;20.50;;
9559;SDS011;4818;50.860;4.648;2023-02-15T14:31:13;34.95;;;20.10;;
9559;SDS011;4818;50.860;4.648;2023-02-15T14:33:41;37.17;;;20.23;;
9559;SDS011;4818;50.860;4.648;2023-02-15T14:36:11;37.28;;;20.73;;
9559;SDS011;4818;50.860;4.648;2023-02-15T14:43:47;37.80;;;17.90;;
9559;SDS011;4818;50.860;4.648;2023-02-15T14:48:42;35.53;;;18.98;;
9559;SDS011;4818;50.860;4.648;2023-02-15T14:51:13;38.65;;;19.77;;
9559;SDS011;4818;50.860;4.648;2023-02-15T14:53:56;37.20;;;20.23;;
9559;SDS011;4818;50.860;4.648;2023-02-15T14:56:23;36.97;;;19.60;;
9559;SDS011;4818;50.860;4.648;2023-02-15T15:01:28;39.95;;;22.17;;
9559;SDS011;4818;50.860;4.648;2023-02-15T15:03:56;38.53;;;20.23;;
9559;SDS011;4818;50.860;4.648;2023-02-15T15:06:34;41.25;;;21.50;;
9559;SDS011;4818;50.860;4.648;2023-02-15T15:09:23;41.20;;;20.77;;
9559;SDS011;4818;50.860;4.648;2023-02-15T15:11:51;43.30;;;22.75;;
9559;SDS011;4818;50.860;4.648;2023-02-15T15:14:36;37.30;;;18.75;;
9559;SDS011;4818;50.860;4.648;2023-02-15T15:17:03;35.78;;;19.77;;
9559;SDS011;4818;50.860;4.648;2023-02-15T15:29:55;38.78;;;19.60;;
9559;SDS011;4818;50.860;4.648;2023-02-15T15:32:22;37.53;;;19.73;;
9559;SDS011;4818;50.860;4.648;2023-02-15T15:37:41;32.35;;;17.92;;
9559;SDS011;4818;50.860;4.648;2023-02-15T15:51:12;37.28;;;19.08;;
9559;SDS011;4818;50.860;4.648;2023-02-15T15:53:42;34.13;;;18.55;;
9559;SDS011;4818;50.860;4.648;2023-02-15T15:56:12;35.03;;;18.60;;
9559;SDS011;4818;50.860;4.648;2023-02-15T15:58:41;35.97;;;19.77;;
9559;SDS011;4818;50.860;4.648;2023-02-15T16:01:08;41.60;;;20.88;;
9559;SDS011;4818;50.860;4.648;2023-02-15T16:03:38;34.63;;;19.52;;
9559;SDS011;4818;50.860;4.648;2023-02-15T16:06:04;39.30;;;19.95;;
9559;SDS011;4818;50.860;4.648;2023-02-15T16:08:32;35.38;;;19.13;;
9559;SDS011;4818;50.860;4.648;2023-02-15T16:10:58;55.50;;;21.85;;
9559;SDS011;4818;50.860;4.648;2023-02-15T16:13:26;58.63;;;21.52;;
9559;SDS011;4818;50.860;4.648;2023-02-15T16:15:53;40.75;;;20.38;;
9559;SDS011;4818;50.860;4.648;2023-02-15T16:18:24;34.53;;;18.77;;
9559;SDS011;4818;50.860;4.648;2023-02-15T16:20:52;38.90;;;20.15;;
9559;SDS011;4818;50.860;4.648;2023-02-15T16:28:30;39.53;;;18.88;;
9559;SDS011;4818;50.860;4.648;2023-02-15T16:31:06;42.83;;;21.90;;
9559;SDS011;4818;50.860;4.648;2023-02-15T16:33:36;39.45;;;21.15;;
9559;SDS011;4818;50.860;4.648;2023-02-15T16:36:03;39.85;;;20.98;;
9559;SDS011;4818;50.860;4.648;2023-02-15T16:41:04;37.15;;;20.23;;
9559;SDS011;4818;50.860;4.648;2023-02-15T16:43:31;37.15;;;20.27;;
9559;SDS011;4818;50.860;4.648;2023-02-15T16:46:04;36.72;;;20.05;;
9559;SDS011;4818;50.860;4.648;2023-02-15T16:48:32;44.35;;;21.58;;
9559;SDS011;4818;50.860;4.648;2023-02-15T16:50:59;38.00;;;20.52;;
9559;SDS011;4818;50.860;4.648;2023-02-15T16:53:26;42.47;;;22.58;;
9559;SDS011;4818;50.860;4.648;2023-02-15T16:56:02;37.75;;;21.67;;
9559;SDS011;4818;50.860;4.648;2023-02-15T16:58:31;42.83;;;21.33;;
9559;SDS011;4818;50.860;4.648;2023-02-15T17:01:02;35.97;;;20.23;;
9559;SDS011;4818;50.860;4.648;2023-02-15T17:03:31;38.13;;;21.42;;
9559;SDS011;4818;50.860;4.648;2023-02-15T17:05:58;43.22;;;22.23;;
9559;SDS011;4818;50.860;4.648;2023-02-15T17:08:26;38.95;;;20.80;;
9559;SDS011;4818;50.860;4.648;2023-02-15T17:11:04;40.95;;;21.02;;
9559;SDS011;4818;50.860;4.648;2023-02-15T17:13:31;43.72;;;21.10;;
9559;SDS011;4818;50.860;4.648;2023-02-15T17:20:57;43.08;;;23.58;;
9559;SDS011;4818;50.860;4.648;2023-02-15T17:23:35;44.88;;;22.73;;
9559;SDS011;4818;50.860;4.648;2023-02-15T17:26:10;42.63;;;22.65;;
9559;SDS011;4818;50.860;4.648;2023-02-15T17:28:37;42.85;;;21.67;;
9559;SDS011;4818;50.860;4.648;2023-02-15T17:31:06;41.67;;;22.35;;
9559;SDS011;4818;50.860;4.648;2023-02-15T17:36:09;41.90;;;21.30;;
9559;SDS011;4818;50.860;4.648;2023-02-15T17:38:39;43.97;;;23.13;;
9559;SDS011;4818;50.860;4.648;2023-02-15T17:41:06;47.08;;;24.02;;
9559;SDS011;4818;50.860;4.648;2023-02-15T17:43:33;42.90;;;22.10;;
9559;SDS011;4818;50.860;4.648;2023-02-15T17:46:00;48.45;;;24.27;;
9559;SDS011;4818;50.860;4.648;2023-02-15T17:48:36;49.45;;;23.25;;
9559;SDS011;4818;50.860;4.648;2023-02-15T17:51:03;41.33;;;21.85;;
9559;SDS011;4818;50.860;4.648;2023-02-15T17:53:30;45.83;;;23.38;;
9559;SDS011;4818;50.860;4.648;2023-02-15T17:55:56;47.95;;;23.27;;
9559;SDS011;4818;50.860;4.648;2023-02-15T17:58:23;44.50;;;24.13;;
9559;SDS011;4818;50.860;4.648;2023-02-15T18:00:54;48.58;;;24.73;;
9559;SDS011;4818;50.860;4.648;2023-02-15T18:03:51;46.90;;;24.77;;
9559;SDS011;4818;50.860;4.648;2023-02-15T18:06:40;45.88;;;24.33;;